Terminal Aerodrome Forecast
Issued by NWS Sioux Falls, SD

Home | Current Version | Previous Version | Text Only | Print | Product List | Glossary On
Versions: 1 2 3 4 5 6 7 8 9 10 11 12 13 14 15
000
FTUS43 KFSD 190520
TAFHON
TAF
KHON 190520Z 1906/2006 16015KT P6SM SCT030 SCT100
     FM190800 16015KT P6SM BKN020 WS019/19045KT
     FM191000 16013G20KT P6SM BKN008
     FM191700 22012KT P6SM BKN015
     FM191900 25011KT P6SM SCT025 BKN140
     FM200000 27008KT P6SM SCT120=

USA.gov is the U.S. government's official web portal to all federal, state and local government web resources and services.